Aeroporto :
LOGIN :

Iscrizione | Disclaimer

   EN    FR    IT 

 










Sommario :    VFR   VFR Marginale   IFR   IFR Intensivo   IFR Molto Intensivo
Visibilità : 
Base nubi : 
>= 8 km
>= 3000ft
5 / 8 km
1000 / 3000 ft
1500m / 5 km
500 / 1000 ft
800 / 1500m
200 / 500 ft
< 800m
< 200 ft
Simboli :   Temporali  Nebbia  Neve Forte  Precipitazioni Forti  Vento > 20 kt
SIGMETs :   Varie  Temporali  Ghiacco  Turbolenza  Onda orograficha  Ceneri Vulcaniche







- Altitudine del aeroporto : -15 ft
- Codice IATA : RTM


EHRD - Rotterdam Zestienhoven

ULTIMO METAR :
  • 190225Z AUTO 00000KT 9999 SCT029 BKN034 OVC038 11/09 Q1029 NOSIG

METARs OBSOLETI :
  • 190155Z AUTO 30002KT 9999 BKN032 BKN038 OVC044 11/09 Q1030 NOSIG
  • 190125Z AUTO VRB02KT 9999 OVC030 11/09 Q1030 NOSIG
  • 190055Z AUTO 04003KT 9999 FEW031 BKN046 12/08 Q1030 NOSIG
  • 190025Z AUTO VRB01KT 9999 BKN031 OVC035 12/10 Q1030 NOSIG
  • 182355Z AUTO VRB02KT 9999 SCT031 BKN038 OVC043 12/10 Q1029 NOSIG

TAF TAF EHRD
Valido dal 19 a 00 ore il 20 a 06 ore UTC


182310Z 1900/2006 VRB03KT 9999 SCT045
PROB30
TEMPO 1900/1909 7000 -DZ BKN015
PROB40 1922/2006 2000 BCFG
Nessun NOTAM noto per questo aeroporto.



MetMap, La meteo Aeronautica in un colpo d'occhio ! - Copyright ORBIFLY Dicembre 2007 - Disclaimer

ORBIFLY MET'MAP TEAM :

Programmazione e sviluppo : Alexandra Zaïnal
Concezione e sviluppo : Baudouin d'Aumeries
Co-Programmazione e sviluppo : Marc-Olivier Méhu
Supporto tecnico e logistico : Manuel Goepfert
Aiuto per la traduzione : Arnaldo La Scala

Contatto : metmap@orbifly.com




FONTI E CREDITI :

   NOAA